createdAt,value
2023-03-26T00:00:44.044Z,69.98
2023-03-26T00:01:43.822Z,70.01
2023-03-26T00:02:43.692Z,70.13
2023-03-26T00:03:40.871Z,70.13
2023-03-26T00:04:41.686Z,70.26
2023-03-26T00:05:40.418Z,70.24
2023-03-26T00:06:41.060Z,70.32
2023-03-26T00:07:40.269Z,70.39
2023-03-26T00:08:40.167Z,70.36
2023-03-26T00:09:43.108Z,70.35
2023-03-26T00:10:42.164Z,70.46
2023-03-26T00:11:40.120Z,70.49
2023-03-26T00:12:42.697Z,70.58
2023-03-26T00:13:42.155Z,70.52
2023-03-26T00:14:40.315Z,70.59
2023-03-26T00:15:42.156Z,70.73
2023-03-26T00:16:40.633Z,70.81
2023-03-26T00:17:41.268Z,70.82
2023-03-26T00:18:42.896Z,70.88
2023-03-26T00:19:40.609Z,70.93
2023-03-26T00:20:40.980Z,70.86
2023-03-26T00:21:40.005Z,70.87
2023-03-26T00:22:39.687Z,70.80
2023-03-26T00:23:42.302Z,70.85
2023-03-26T00:24:42.110Z,70.86
2023-03-26T00:25:40.017Z,70.96
2023-03-26T00:26:40.580Z,71.01
2023-03-26T00:27:41.654Z,70.89
2023-03-26T00:29:04.461Z,70.88
2023-03-26T00:29:42.755Z,70.94
2023-03-26T00:30:41.282Z,71.05
2023-03-26T00:31:40.408Z,70.98
2023-03-26T00:32:40.579Z,71.05
2023-03-26T00:33:41.534Z,71.01
2023-03-26T00:34:42.823Z,71.12
2023-03-26T00:35:42.230Z,71.06
2023-03-26T00:37:15.328Z,71.07
2023-03-26T00:37:48.978Z,71.09
2023-03-26T00:38:42.285Z,71.12
2023-03-26T00:39:42.228Z,71.22
2023-03-26T00:40:55.339Z,71.21
2023-03-26T00:41:41.406Z,71.26
2023-03-26T00:42:41.711Z,71.27
2023-03-26T00:43:41.646Z,71.27
2023-03-26T00:44:39.431Z,71.30
2023-03-26T00:45:41.061Z,71.36
2023-03-26T00:46:41.431Z,71.30
2023-03-26T00:47:41.054Z,71.31
2023-03-26T00:49:00.131Z,71.31
2023-03-26T00:49:38.756Z,71.33
2023-03-26T00:50:42.064Z,71.31
2023-03-26T00:51:42.556Z,71.37
2023-03-26T00:52:42.485Z,71.32
2023-03-26T00:53:42.242Z,71.33
2023-03-26T00:54:41.652Z,71.29
2023-03-26T00:55:42.544Z,71.36
2023-03-26T00:56:41.924Z,71.43
2023-03-26T00:57:51.761Z,71.49
2023-03-26T00:58:41.709Z,71.57
2023-03-26T00:59:41.643Z,71.62
2023-03-26T01:00:49.360Z,71.69
2023-03-26T01:01:41.072Z,71.62
2023-03-26T01:02:42.341Z,71.63
2023-03-26T01:03:53.074Z,71.67
2023-03-26T01:04:40.999Z,71.75
2023-03-26T01:05:41.256Z,71.73
2023-03-26T01:07:03.203Z,71.75
2023-03-26T01:07:41.384Z,71.75
2023-03-26T01:08:41.200Z,71.80
2023-03-26T01:09:40.791Z,71.81
2023-03-26T01:10:40.835Z,71.84
2023-03-26T01:11:41.009Z,71.88
2023-03-26T01:12:39.890Z,71.83
2023-03-26T01:13:40.799Z,71.87
2023-03-26T01:14:41.361Z,71.88
2023-03-26T01:15:42.318Z,71.92
2023-03-26T01:16:41.185Z,72.01
2023-03-26T01:17:42.840Z,72.04
2023-03-26T01:18:42.536Z,72.07
2023-03-26T01:19:41.357Z,72.02
2023-03-26T01:20:40.700Z,72.04
2023-03-26T01:21:40.191Z,72.10
2023-03-26T01:22:41.089Z,72.08
2023-03-26T01:23:41.626Z,72.03
2023-03-26T01:24:42.826Z,72.09
2023-03-26T01:25:41.773Z,72.13
2023-03-26T01:26:41.109Z,72.28
2023-03-26T01:27:41.915Z,72.20
2023-03-26T01:28:43.001Z,72.18
2023-03-26T01:29:43.932Z,72.24
2023-03-26T01:30:40.969Z,72.30
2023-03-26T01:31:40.805Z,72.25
2023-03-26T01:32:41.992Z,72.25
2023-03-26T01:33:41.427Z,72.26
2023-03-26T01:34:40.370Z,72.18
2023-03-26T01:35:39.516Z,72.20
2023-03-26T01:36:41.264Z,72.20
2023-03-26T01:37:43.165Z,72.16
2023-03-26T01:38:40.864Z,72.19
2023-03-26T01:39:42.131Z,72.16
2023-03-26T01:40:40.187Z,72.17
2023-03-26T01:41:41.641Z,72.18
2023-03-26T01:42:42.573Z,72.07
2023-03-26T01:43:42.441Z,72.06
2023-03-26T01:44:41.476Z,72.16
2023-03-26T01:45:43.131Z,72.12
2023-03-26T01:46:41.603Z,72.17
2023-03-26T01:47:41.886Z,72.15
2023-03-26T01:48:41.173Z,72.11
2023-03-26T01:49:41.784Z,72.19
2023-03-26T01:50:40.957Z,72.28
2023-03-26T01:51:43.374Z,72.21
2023-03-26T01:52:42.651Z,72.16
2023-03-26T01:53:41.456Z,72.14
2023-03-26T01:54:41.189Z,72.22
2023-03-26T01:55:41.446Z,72.13
2023-03-26T01:56:41.542Z,72.14
2023-03-26T01:57:41.468Z,72.16
2023-03-26T01:58:41.369Z,72.12
2023-03-26T01:59:41.683Z,72.17
2023-03-26T02:00:42.761Z,72.05
2023-03-26T02:01:42.895Z,72.08
2023-03-26T02:02:42.313Z,72.07
2023-03-26T02:03:45.259Z,72.09
2023-03-26T02:04:39.564Z,72.14
2023-03-26T02:05:42.010Z,72.17
2023-03-26T02:06:41.286Z,72.13
2023-03-26T02:07:40.075Z,72.20
2023-03-26T02:08:40.814Z,72.11
2023-03-26T02:09:41.620Z,72.09
2023-03-26T02:10:40.718Z,72.12
2023-03-26T02:11:51.534Z,72.18
2023-03-26T02:12:41.152Z,72.21
2023-03-26T02:13:41.925Z,72.24
2023-03-26T02:14:40.835Z,72.31
2023-03-26T02:15:41.625Z,72.33
2023-03-26T02:16:39.470Z,72.35
2023-03-26T02:17:40.664Z,72.31
2023-03-26T02:18:41.610Z,72.37
2023-03-26T02:19:41.109Z,72.40
2023-03-26T02:20:39.754Z,72.46
2023-03-26T02:21:41.112Z,72.39
2023-03-26T02:22:38.799Z,72.47
2023-03-26T02:23:41.831Z,72.50
2023-03-26T02:24:41.316Z,72.47
2023-03-26T02:25:41.876Z,72.53
2023-03-26T02:26:41.858Z,72.63
2023-03-26T02:27:41.799Z,72.65
2023-03-26T02:28:42.788Z,72.65
2023-03-26T02:29:42.051Z,72.69
2023-03-26T02:30:41.716Z,72.67
2023-03-26T02:31:41.097Z,72.69
2023-03-26T02:32:44.774Z,72.72
2023-03-26T02:33:40.502Z,72.86
2023-03-26T02:34:41.479Z,72.98
2023-03-26T02:35:41.956Z,73.04
2023-03-26T02:36:41.414Z,73.01
2023-03-26T02:37:42.341Z,72.95
2023-03-26T02:38:42.728Z,72.97
2023-03-26T02:39:42.625Z,73.08
2023-03-26T02:40:43.215Z,73.04
2023-03-26T02:41:41.355Z,73.09
2023-03-26T02:42:42.226Z,73.03
2023-03-26T02:43:40.935Z,72.98
2023-03-26T02:44:41.849Z,72.96
2023-03-26T02:45:42.471Z,73
2023-03-26T02:46:41.953Z,73.12
2023-03-26T02:47:41.259Z,73.24
2023-03-26T02:48:40.124Z,73.29
2023-03-26T02:49:40.541Z,73.29
2023-03-26T02:50:41.408Z,73.29
2023-03-26T02:51:39.890Z,73.39
2023-03-26T02:52:40.097Z,73.37
2023-03-26T02:53:40.293Z,73.45
2023-03-26T02:54:42.480Z,73.59
2023-03-26T02:55:43.526Z,73.63
2023-03-26T02:56:42.683Z,73.70
2023-03-26T02:57:41.344Z,73.74
2023-03-26T02:58:42.997Z,73.84
2023-03-26T02:59:42.612Z,73.82
2023-03-26T03:00:43.327Z,73.82
2023-03-26T03:01:42.291Z,73.82
2023-03-26T03:02:42.682Z,73.82
2023-03-26T03:03:41.488Z,73.82
2023-03-26T03:04:42.277Z,73.82
2023-03-26T03:05:39.940Z,73.82
2023-03-26T03:06:41.221Z,73.82
2023-03-26T03:07:41.167Z,73.82
2023-03-26T03:08:39.152Z,73.82
2023-03-26T03:09:40.377Z,73.82
2023-03-26T03:10:40.593Z,73.82
2023-03-26T03:11:41.210Z,73.82
2023-03-26T03:12:41.297Z,73.82
2023-03-26T03:13:39.986Z,73.82
2023-03-26T03:14:41.290Z,73.82
2023-03-26T03:15:40.009Z,73.82
2023-03-26T03:16:39.909Z,73.82
2023-03-26T03:17:41.242Z,73.82
2023-03-26T03:18:40.124Z,73.82
2023-03-26T03:19:42.968Z,73.82
2023-03-26T03:20:42.421Z,73.82
2023-03-26T03:21:42.103Z,73.82
2023-03-26T03:22:41.794Z,73.82
2023-03-26T03:23:42.059Z,73.82
2023-03-26T03:24:41.570Z,73.82
2023-03-26T03:25:41.634Z,73.82
2023-03-26T03:26:41.617Z,73.82
2023-03-26T03:27:41.382Z,73.82
2023-03-26T03:28:42.413Z,73.82
2023-03-26T03:29:42.214Z,73.82
2023-03-26T03:30:41.741Z,73.82
2023-03-26T03:31:42.307Z,73.82
2023-03-26T03:32:40.824Z,73.82
2023-03-26T03:33:41.191Z,73.82
2023-03-26T03:34:40.125Z,73.82
2023-03-26T03:35:40.577Z,73.82
2023-03-26T03:36:41.121Z,73.82
2023-03-26T03:37:39.303Z,73.82
2023-03-26T03:38:40.998Z,73.82
2023-03-26T03:39:40.073Z,73.82
2023-03-26T03:40:41.169Z,73.82
2023-03-26T03:41:40.360Z,73.82
2023-03-26T03:42:41.059Z,73.82
2023-03-26T03:43:39.557Z,73.82
2023-03-26T03:44:42.582Z,73.82
2023-03-26T03:45:40.432Z,73.82
2023-03-26T03:46:39.229Z,73.82
2023-03-26T03:47:40.167Z,73.82
2023-03-26T03:48:40.983Z,73.82
2023-03-26T03:49:41.067Z,73.82
2023-03-26T03:50:41.349Z,73.82
2023-03-26T03:51:41.080Z,73.82
2023-03-26T03:52:41.595Z,73.82
2023-03-26T03:53:40.453Z,73.82
2023-03-26T03:54:42.208Z,73.82
2023-03-26T03:55:40.916Z,73.82
2023-03-26T03:56:41.047Z,73.82
2023-03-26T03:57:41.832Z,73.82
2023-03-26T03:58:41.866Z,73.82
2023-03-26T03:59:47.788Z,75.39
2023-03-26T04:00:43.044Z,75.40
2023-03-26T04:01:39.748Z,75.45
2023-03-26T04:02:39.411Z,75.47
2023-03-26T04:03:50.249Z,75.48
2023-03-26T04:04:42.092Z,75.56
2023-03-26T04:05:39.537Z,75.51
2023-03-26T04:06:39.906Z,75.51
2023-03-26T04:07:42.842Z,75.54
2023-03-26T04:08:42.817Z,75.47
2023-03-26T04:09:44.288Z,75.51
2023-03-26T04:10:43.511Z,75.48
2023-03-26T04:11:42.708Z,75.39
2023-03-26T04:12:42.724Z,75.45
2023-03-26T04:13:43.060Z,75.55
2023-03-26T04:14:40.428Z,75.53
2023-03-26T04:15:39.882Z,75.54
2023-03-26T04:16:40.613Z,75.55
2023-03-26T04:17:41.793Z,75.52
2023-03-26T04:18:41.084Z,75.57
2023-03-26T04:19:42.361Z,75.53
2023-03-26T04:20:41.848Z,75.48
2023-03-26T04:21:41.262Z,75.54
2023-03-26T04:22:40.959Z,75.58
2023-03-26T04:23:40.290Z,75.57
2023-03-26T04:24:40.458Z,75.67
2023-03-26T04:25:42.007Z,75.64
2023-03-26T04:26:40.271Z,75.68
2023-03-26T04:27:41.061Z,75.64
2023-03-26T04:28:41.333Z,75.74
2023-03-26T04:29:42.483Z,75.82
2023-03-26T04:30:43.504Z,75.91
2023-03-26T04:31:41.437Z,75.84
2023-03-26T04:32:48.003Z,75.80
2023-03-26T04:33:39.299Z,75.91
2023-03-26T04:34:41.565Z,75.93
2023-03-26T04:35:40.408Z,75.89
2023-03-26T04:36:46.049Z,75.93
2023-03-26T04:37:40.258Z,76.03
2023-03-26T04:38:39.648Z,76.02
2023-03-26T04:39:40.314Z,76.05
2023-03-26T04:40:39.965Z,76.18
2023-03-26T04:41:41.878Z,76.15
2023-03-26T04:42:43.508Z,76.21
2023-03-26T04:43:40.444Z,76.25
2023-03-26T04:44:41.517Z,76.26
2023-03-26T04:45:41.925Z,76.32
2023-03-26T04:46:42.436Z,76.27
2023-03-26T04:47:42.313Z,76.39
2023-03-26T04:48:42.886Z,76.34
2023-03-26T04:49:43.370Z,76.39
2023-03-26T04:50:40.166Z,76.53
2023-03-26T04:51:39.978Z,76.55
2023-03-26T04:52:39.140Z,76.56
2023-03-26T04:53:41.171Z,76.65
2023-03-26T04:54:42.639Z,76.91
2023-03-26T04:55:41.300Z,77.01
2023-03-26T04:56:54.962Z,77.11
2023-03-26T04:57:40.251Z,77.21
2023-03-26T04:58:55.191Z,77.37
2023-03-26T04:59:43.754Z,77.31
2023-03-26T05:00:43.098Z,77.39
2023-03-26T05:01:41.997Z,77.45
2023-03-26T05:02:41.879Z,77.55
2023-03-26T05:03:43.339Z,77.70
2023-03-26T05:04:40.997Z,77.74
2023-03-26T05:05:42.662Z,77.94
2023-03-26T05:06:41.750Z,78.09
2023-03-26T05:07:41.475Z,78.08
2023-03-26T05:08:44.123Z,78.27
2023-03-26T05:09:42.925Z,78.17
2023-03-26T05:11:01.937Z,78.09
2023-03-26T05:11:39.991Z,78.44
2023-03-26T05:12:40.398Z,78.75
2023-03-26T05:13:39.968Z,79.01
2023-03-26T05:14:42.122Z,79.16
2023-03-26T05:15:42.177Z,79.17
2023-03-26T05:16:40.027Z,79.32
2023-03-26T05:17:39.862Z,79.58
2023-03-26T05:18:39.981Z,79.99
2023-03-26T05:19:39.638Z,80.16
2023-03-26T05:20:41.431Z,80.09
2023-03-26T05:21:41.508Z,80.17
2023-03-26T05:22:39.820Z,80.22
2023-03-26T05:23:41.054Z,80.19
2023-03-26T05:24:43.745Z,80.09
2023-03-26T05:25:42.073Z,79.87
2023-03-26T05:26:42.003Z,79.52
2023-03-26T05:27:42.944Z,79.38
2023-03-26T05:28:41.814Z,79.54
2023-03-26T05:29:42.450Z,79.90
2023-03-26T05:30:42.654Z,79.97
2023-03-26T05:31:41.767Z,80.07
2023-03-26T05:32:43.267Z,80.20
2023-03-26T05:33:42.418Z,80.08
2023-03-26T05:34:41.840Z,79.87
2023-03-26T05:35:43.926Z,79.93
2023-03-26T05:36:42.031Z,80.06
2023-03-26T05:37:42.765Z,80.31
2023-03-26T05:38:43.360Z,80.72
2023-03-26T05:39:44.010Z,80.73
2023-03-26T05:40:41.806Z,80.54
2023-03-26T05:41:41.956Z,80.52
2023-03-26T05:42:44.887Z,80.51
2023-03-26T05:43:45.362Z,80.43
2023-03-26T05:44:43.992Z,80.62
2023-03-26T05:45:41.583Z,80.43
2023-03-26T05:46:41.704Z,80.22
2023-03-26T05:47:42.509Z,80.05
2023-03-26T05:48:43.688Z,80.14
2023-03-26T05:49:42.394Z,80.24
2023-03-26T05:50:42.669Z,80.22
2023-03-26T05:51:41.543Z,80.32
2023-03-26T05:52:42.285Z,80.58
2023-03-26T05:53:41.908Z,80.79
2023-03-26T05:54:41.842Z,81.01
2023-03-26T05:55:44.279Z,81.16
2023-03-26T05:56:41.921Z,81.18
2023-03-26T05:57:42.995Z,81.27
2023-03-26T05:58:43.584Z,81.48
2023-03-26T05:59:44.110Z,81.47
2023-03-26T06:00:42.809Z,81.20
2023-03-26T06:01:41.452Z,80.94
2023-03-26T06:02:42.117Z,80.97
2023-03-26T06:03:42.737Z,81.13
2023-03-26T06:04:44.061Z,81.20
2023-03-26T06:05:43.987Z,81.09
2023-03-26T06:06:42.116Z,81.15
2023-03-26T06:07:41.977Z,81.05
2023-03-26T06:08:41.742Z,81.06
2023-03-26T06:09:43.010Z,81.18
2023-03-26T06:10:42.515Z,81.32
2023-03-26T06:11:41.069Z,81.44
2023-03-26T06:12:41.080Z,81.58
2023-03-26T06:13:41.125Z,81.52
2023-03-26T06:14:41.282Z,81.59
2023-03-26T06:15:42.676Z,81.61
2023-03-26T06:16:43.797Z,81.56
2023-03-26T06:17:43.689Z,81.80
2023-03-26T06:18:41.353Z,81.97
2023-03-26T06:19:41.614Z,82.04
2023-03-26T06:20:40.958Z,82.30
2023-03-26T06:21:41.051Z,82.22
2023-03-26T06:22:39.780Z,81.98
2023-03-26T06:23:41.732Z,82.05
2023-03-26T06:24:41.480Z,82.25
2023-03-26T06:25:41.708Z,82.01
2023-03-26T06:26:42.435Z,81.86
2023-03-26T06:27:41.484Z,81.70
2023-03-26T06:28:41.394Z,81.76
2023-03-26T06:29:41.627Z,81.90
2023-03-26T06:30:43.418Z,82.21
2023-03-26T06:31:41.802Z,82.36
2023-03-26T06:32:42.072Z,82.30
2023-03-26T06:33:42.960Z,82.27
2023-03-26T06:34:42.036Z,82.44
2023-03-26T06:35:41.118Z,82.43
2023-03-26T06:36:40.802Z,82.36
2023-03-26T06:37:40.591Z,82.27
2023-03-26T06:38:41.701Z,82.21
2023-03-26T06:39:42.751Z,82.20
2023-03-26T06:40:41.719Z,82.33
2023-03-26T06:41:42.554Z,82.36
2023-03-26T06:43:44.539Z,82.31
2023-03-26T06:43:52.552Z,82.44
2023-03-26T06:44:41.675Z,82.43
2023-03-26T06:45:42.248Z,82.57
2023-03-26T06:46:40.277Z,82.71
2023-03-26T06:47:41.155Z,82.66
2023-03-26T06:48:43.581Z,82.72
2023-03-26T06:49:45.516Z,82.78
2023-03-26T06:50:42.040Z,82.71
2023-03-26T06:52:42.089Z,82.72
2023-03-26T06:53:40.668Z,82.73
2023-03-26T06:54:41.434Z,82.88
2023-03-26T06:55:40.654Z,82.73
2023-03-26T06:56:41.224Z,82.54
2023-03-26T06:57:39.946Z,82.46
2023-03-26T06:58:42.682Z,82.44
2023-03-26T06:59:47.171Z,82.43
2023-03-26T07:00:44.740Z,82.58
2023-03-26T07:01:44.151Z,82.56
2023-03-26T07:02:42.330Z,82.52
2023-03-26T07:03:40.810Z,82.48
2023-03-26T07:04:43.737Z,82.48
2023-03-26T07:05:42.148Z,82.64
2023-03-26T07:06:43.028Z,82.65
2023-03-26T07:07:50.112Z,82.52
2023-03-26T07:08:42.658Z,82.50
2023-03-26T07:09:42.495Z,82.73
2023-03-26T07:10:41.160Z,83.06
2023-03-26T07:11:50.870Z,83.14
2023-03-26T07:12:41.944Z,83.08
2023-03-26T07:13:40.142Z,82.91
2023-03-26T07:14:40.214Z,82.91
2023-03-26T07:15:40.995Z,83.00
2023-03-26T07:16:43.801Z,82.98
2023-03-26T07:17:41.945Z,83.11
2023-03-26T07:18:41.809Z,83.18
2023-03-26T07:19:42.253Z,83.04
2023-03-26T07:20:39.995Z,83.20
2023-03-26T07:21:40.901Z,83.32
2023-03-26T07:22:42.175Z,83.33
2023-03-26T07:23:42.586Z,83.25
2023-03-26T07:24:41.817Z,83.13
2023-03-26T07:25:41.718Z,83.23
2023-03-26T07:26:42.310Z,83.05
2023-03-26T07:27:42.677Z,82.92
2023-03-26T07:28:42.658Z,83.09
2023-03-26T07:29:57.837Z,83.16
2023-03-26T07:30:43.454Z,83.16
2023-03-26T07:31:42.246Z,83.44
2023-03-26T07:32:41.373Z,83.50
2023-03-26T07:33:42.232Z,83.50
2023-03-26T07:34:41.973Z,83.5
2023-03-26T07:35:42.282Z,83.47
2023-03-26T07:36:42.684Z,83.51
2023-03-26T07:37:41.281Z,83.67
2023-03-26T07:38:41.074Z,83.67
2023-03-26T07:39:43.681Z,83.67
2023-03-26T07:40:43.245Z,83.72
2023-03-26T07:41:42.204Z,83.76
2023-03-26T07:42:41.783Z,83.83
2023-03-26T07:43:42.713Z,83.50
2023-03-26T07:44:42.213Z,83.40
2023-03-26T07:45:43.450Z,83.45
2023-03-26T07:46:43.480Z,83.73
2023-03-26T07:47:42.745Z,83.98
2023-03-26T07:48:41.628Z,84.04
2023-03-26T07:49:42.734Z,83.82
2023-03-26T07:50:42.994Z,83.65
2023-03-26T07:51:42.000Z,83.70
2023-03-26T07:52:43.192Z,83.74
2023-03-26T07:53:42.002Z,83.72
2023-03-26T07:54:42.512Z,83.97
2023-03-26T07:55:44.276Z,84.10
2023-03-26T07:56:44.543Z,84.06
2023-03-26T07:57:41.398Z,83.96
2023-03-26T07:58:44.100Z,84.19
2023-03-26T07:59:42.114Z,84.22
2023-03-26T08:00:43.548Z,84.25
2023-03-26T08:01:44.198Z,84.32
2023-03-26T08:02:42.933Z,84.47
2023-03-26T08:04:23.696Z,84.59
2023-03-26T08:04:50.729Z,84.61
2023-03-26T08:05:42.378Z,84.50
2023-03-26T08:06:42.224Z,84.36
2023-03-26T08:07:42.633Z,84.07
2023-03-26T08:08:42.272Z,84.17
2023-03-26T08:10:13.635Z,84.22
2023-03-26T08:10:47.166Z,83.91
2023-03-26T08:11:40.913Z,83.64
2023-03-26T08:12:43.203Z,83.78
2023-03-26T08:13:43.200Z,83.98
2023-03-26T08:14:41.584Z,84.02
2023-03-26T08:15:42.587Z,83.98
2023-03-26T08:16:42.800Z,83.90
2023-03-26T08:17:41.446Z,83.84
2023-03-26T08:18:42.006Z,83.82
2023-03-26T08:19:41.910Z,83.66
2023-03-26T08:20:42.270Z,83.45
2023-03-26T08:21:40.887Z,83.35
2023-03-26T08:22:41.593Z,83.21
2023-03-26T08:23:50.762Z,83.38
2023-03-26T08:24:41.053Z,83.62
2023-03-26T08:25:41.051Z,83.77
2023-03-26T08:26:42.221Z,83.80
2023-03-26T08:27:42.511Z,83.94
2023-03-26T08:28:42.135Z,83.80
2023-03-26T08:29:40.911Z,83.92
2023-03-26T08:30:41.293Z,83.80
2023-03-26T08:31:41.030Z,83.72
2023-03-26T08:32:41.681Z,83.51
2023-03-26T08:33:41.691Z,83.40
2023-03-26T08:34:41.193Z,83.11
2023-03-26T08:35:41.930Z,83.05
2023-03-26T08:36:40.296Z,83.04
2023-03-26T08:37:41.012Z,82.90
2023-03-26T08:38:40.422Z,82.98
2023-03-26T08:39:40.817Z,82.90
2023-03-26T08:40:42.954Z,82.94
2023-03-26T08:41:41.437Z,82.77
2023-03-26T08:42:40.472Z,82.52
2023-03-26T08:43:40.747Z,82.54
2023-03-26T08:44:40.734Z,82.58
2023-03-26T08:45:41.565Z,82.45
2023-03-26T08:46:42.579Z,82.34
2023-03-26T08:47:41.044Z,82.34
2023-03-26T08:48:39.638Z,82.33
2023-03-26T08:49:43.334Z,82.34
2023-03-26T08:50:39.862Z,82.39
2023-03-26T08:51:42.427Z,82.42
2023-03-26T08:52:40.069Z,82.17
2023-03-26T08:53:39.912Z,81.99
2023-03-26T08:54:40.953Z,81.98
2023-03-26T08:55:41.761Z,82.20
2023-03-26T08:56:43.429Z,82.04
2023-03-26T08:57:41.582Z,81.96
2023-03-26T08:58:43.202Z,81.91
2023-03-26T08:59:39.974Z,81.93
2023-03-26T09:00:43.906Z,82.08
2023-03-26T09:01:41.609Z,82.29
2023-03-26T09:02:40.656Z,82.35
2023-03-26T09:03:43.045Z,82.41
2023-03-26T09:04:40.689Z,82.57
2023-03-26T09:05:40.312Z,82.51
2023-03-26T09:06:41.568Z,82.41
2023-03-26T09:07:41.674Z,82.43
2023-03-26T09:08:53.849Z,82.62
2023-03-26T09:09:41.260Z,82.63
2023-03-26T09:10:41.283Z,82.56
2023-03-26T09:11:41.924Z,82.74
2023-03-26T09:12:42.683Z,82.73
2023-03-26T09:13:41.629Z,82.65
2023-03-26T09:14:42.141Z,82.45
2023-03-26T09:15:41.272Z,82.68
2023-03-26T09:16:44.140Z,82.70
2023-03-26T09:17:42.701Z,82.59
2023-03-26T09:18:39.336Z,82.48
2023-03-26T09:19:38.784Z,82.71
2023-03-26T09:20:43.216Z,82.84
2023-03-26T09:21:38.418Z,82.86
2023-03-26T09:22:38.328Z,83.02
2023-03-26T09:23:37.607Z,83.22
2023-03-26T09:24:38.025Z,83.25
2023-03-26T09:25:38.084Z,83.27
2023-03-26T09:26:46.507Z,83.46
2023-03-26T09:27:38.303Z,83.39
2023-03-26T09:28:45.686Z,83.43
2023-03-26T09:29:38.426Z,83.33
2023-03-26T09:30:47.150Z,83.23
2023-03-26T09:31:38.380Z,83.38
2023-03-26T09:32:45.974Z,83.18
2023-03-26T09:33:38.217Z,83.24
2023-03-26T09:34:51.464Z,83.23
2023-03-26T09:35:38.767Z,83.17
2023-03-26T09:36:39.310Z,83.09
2023-03-26T09:37:57.461Z,82.95
2023-03-26T09:38:37.825Z,82.83
2023-03-26T09:39:38.549Z,82.62
2023-03-26T09:40:38.278Z,82.65
2023-03-26T09:41:37.875Z,82.76
2023-03-26T09:42:38.230Z,82.92
2023-03-26T09:43:37.857Z,83.19
2023-03-26T09:44:52.253Z,83.41
2023-03-26T09:45:38.517Z,83.38
2023-03-26T09:46:38.788Z,83.36
2023-03-26T09:47:38.446Z,83.45
2023-03-26T09:48:38.108Z,83.58
2023-03-26T09:49:37.744Z,83.47
2023-03-26T09:50:38.257Z,83.31
2023-03-26T09:51:40.536Z,83.14
2023-03-26T09:52:37.961Z,82.97
2023-03-26T09:53:38.551Z,82.91
2023-03-26T09:54:37.753Z,82.98
2023-03-26T09:55:38.868Z,82.96
2023-03-26T09:56:39.731Z,82.82
2023-03-26T09:57:38.655Z,83.01
2023-03-26T09:58:43.427Z,83.17
2023-03-26T09:59:38.391Z,83.10
2023-03-26T10:00:58.805Z,83.15
2023-03-26T10:01:38.414Z,83.18
2023-03-26T10:03:00.737Z,83.32
2023-03-26T10:03:40.349Z,83.41
2023-03-26T10:04:38.334Z,83.61
2023-03-26T10:05:38.209Z,83.61
2023-03-26T10:06:37.619Z,83.85
2023-03-26T10:07:37.548Z,83.88
2023-03-26T10:08:38.138Z,83.91
2023-03-26T10:09:38.363Z,84.09
2023-03-26T10:10:37.975Z,84.11
2023-03-26T10:11:38.298Z,84.26
2023-03-26T10:12:38.427Z,84.27
2023-03-26T10:13:37.785Z,84.39
2023-03-26T10:14:38.659Z,84.30
2023-03-26T10:15:40.179Z,84.18
2023-03-26T10:16:52.026Z,84.14
2023-03-26T10:17:38.009Z,84.24
2023-03-26T10:18:52.523Z,84.11
2023-03-26T10:19:38.198Z,84.08
2023-03-26T10:20:37.898Z,84.13
2023-03-26T10:21:41.003Z,84.08
2023-03-26T10:22:38.117Z,83.94
2023-03-26T10:23:38.014Z,84.02
2023-03-26T10:24:37.967Z,83.96
2023-03-26T10:25:38.621Z,84.00
2023-03-26T10:26:38.897Z,84.05
2023-03-26T10:27:39.209Z,84.10
2023-03-26T10:28:37.868Z,83.98
2023-03-26T10:29:38.594Z,83.92
2023-03-26T10:30:38.922Z,84.07
2023-03-26T10:31:38.074Z,84.10
2023-03-26T10:32:38.222Z,84.07
2023-03-26T10:33:39.523Z,84.12
2023-03-26T10:34:44.062Z,84.18
2023-03-26T10:35:37.788Z,84.11
2023-03-26T10:36:38.765Z,84.05
2023-03-26T10:37:37.847Z,83.93
2023-03-26T10:38:38.437Z,83.85
2023-03-26T10:39:54.247Z,83.97
2023-03-26T10:40:37.644Z,84.05
2023-03-26T10:41:37.973Z,83.83
2023-03-26T10:42:37.993Z,83.62
2023-03-26T10:43:37.818Z,83.65
2023-03-26T10:44:38.650Z,83.93
2023-03-26T10:45:38.736Z,84.10
2023-03-26T10:46:38.219Z,83.69
2023-03-26T10:47:37.962Z,83.77
2023-03-26T10:48:37.882Z,84.09
2023-03-26T10:49:38.717Z,84.11
2023-03-26T10:50:38.770Z,83.91
2023-03-26T10:51:37.526Z,83.73
2023-03-26T10:52:37.904Z,83.80
2023-03-26T10:53:38.125Z,83.69
2023-03-26T10:54:38.027Z,83.79
2023-03-26T10:55:40.087Z,83.87
2023-03-26T10:56:38.879Z,83.94
2023-03-26T10:57:38.748Z,84.13
2023-03-26T10:58:48.319Z,84.11
2023-03-26T10:59:37.996Z,84.07
2023-03-26T11:00:38.645Z,84.18
2023-03-26T11:01:38.667Z,84.22
2023-03-26T11:02:44.956Z,84.30
2023-03-26T11:03:38.827Z,84.05
2023-03-26T11:04:38.824Z,83.95
2023-03-26T11:05:39.082Z,84.00
2023-03-26T11:06:37.357Z,83.83
2023-03-26T11:07:37.694Z,83.82
2023-03-26T11:08:47.354Z,83.94
2023-03-26T11:09:37.969Z,84.08
2023-03-26T11:10:38.262Z,84.10
2023-03-26T11:11:37.478Z,84.47
2023-03-26T11:12:42.455Z,84.22
2023-03-26T11:13:37.826Z,84.17
2023-03-26T11:14:49.003Z,84.26
2023-03-26T11:15:37.844Z,83.94
2023-03-26T11:16:39.117Z,83.63
2023-03-26T11:17:55.289Z,83.45
2023-03-26T11:18:38.448Z,82.81
2023-03-26T11:19:37.560Z,82.32
2023-03-26T11:20:38.048Z,82.14
2023-03-26T11:21:37.542Z,82.06
2023-03-26T11:22:38.071Z,81.77
2023-03-26T11:23:37.853Z,81.30
2023-03-26T11:24:38.589Z,80.48
2023-03-26T11:25:37.945Z,80.29
2023-03-26T11:26:39.348Z,80.48
2023-03-26T11:27:40.684Z,80.91
2023-03-26T11:28:37.679Z,80.70
2023-03-26T11:29:48.057Z,81.01
2023-03-26T11:30:37.613Z,81.40
2023-03-26T11:31:38.187Z,81.86
2023-03-26T11:32:38.000Z,81.51
2023-03-26T11:33:37.337Z,81.42
2023-03-26T11:34:37.835Z,81.78
2023-03-26T11:35:55.480Z,81.70
2023-03-26T11:36:37.983Z,81.30
2023-03-26T11:37:37.293Z,81.09
2023-03-26T11:38:37.552Z,80.55
2023-03-26T11:39:38.279Z,80.17
2023-03-26T11:40:38.029Z,79.83
2023-03-26T11:41:38.198Z,79.47
2023-03-26T11:42:38.019Z,79.62
2023-03-26T11:43:38.052Z,80.02
2023-03-26T11:44:37.151Z,80.14
2023-03-26T11:45:42.839Z,80.49
2023-03-26T11:46:38.057Z,80.48
2023-03-26T11:47:37.746Z,80.21
2023-03-26T11:48:38.027Z,80.14
2023-03-26T11:49:37.419Z,80.41
2023-03-26T11:50:37.191Z,80.35
2023-03-26T11:51:38.229Z,80.07
2023-03-26T11:52:37.658Z,80.01
2023-03-26T11:53:37.407Z,80.23
2023-03-26T11:54:38.035Z,80.23
2023-03-26T11:55:38.463Z,80.45
2023-03-26T11:56:37.604Z,80.23
2023-03-26T11:57:38.048Z,80.39
2023-03-26T11:58:37.614Z,80.49
2023-03-26T11:59:48.882Z,80.62
2023-03-26T12:00:39.002Z,80.80
2023-03-26T12:01:51.395Z,80.70
2023-03-26T12:02:38.049Z,80.97
2023-03-26T12:03:37.739Z,80.80
2023-03-26T12:04:37.551Z,80.38
2023-03-26T12:05:37.938Z,80.22
2023-03-26T12:06:38.549Z,80.28
2023-03-26T12:07:52.152Z,80.24
2023-03-26T12:08:37.127Z,80.32
2023-03-26T12:09:37.433Z,80.51
2023-03-26T12:10:37.413Z,80.60
2023-03-26T12:11:37.318Z,80.83
2023-03-26T12:12:37.628Z,80.94
2023-03-26T12:13:56.757Z,80.97
2023-03-26T12:14:37.892Z,80.79
2023-03-26T12:15:43.330Z,80.62
2023-03-26T12:16:37.794Z,80.61
2023-03-26T12:17:46.729Z,80.67
2023-03-26T12:18:37.341Z,80.94
2023-03-26T12:19:38.079Z,81.20
2023-03-26T12:20:37.338Z,81.51
2023-03-26T12:21:37.876Z,81.60
2023-03-26T12:22:38.134Z,81.81
2023-03-26T12:23:37.524Z,81.87
2023-03-26T12:24:38.032Z,81.81
2023-03-26T12:25:37.244Z,81.65
2023-03-26T12:26:38.572Z,81.69
2023-03-26T12:27:37.686Z,81.89
2023-03-26T12:28:37.385Z,81.90
2023-03-26T12:29:38.134Z,81.79
2023-03-26T12:30:37.613Z,81.76
2023-03-26T12:31:37.392Z,81.66
2023-03-26T12:32:53.350Z,81.26
2023-03-26T12:33:46.312Z,81.67
2023-03-26T12:34:37.795Z,81.71
2023-03-26T12:35:51.536Z,81.68
2023-03-26T12:36:37.626Z,81.80
2023-03-26T12:37:37.310Z,81.98
2023-03-26T12:38:37.087Z,82.23
2023-03-26T12:40:34.985Z,82.47
2023-03-26T12:40:50.550Z,82.60
2023-03-26T12:46:03.691Z,82.57
2023-03-26T12:46:03.724Z,82.57
2023-03-26T12:47:15.031Z,82.57
2023-03-26T12:47:46.232Z,82.57
2023-03-26T12:48:22.394Z,82.44
2023-03-26T12:48:46.479Z,82.44
2023-03-26T12:48:46.557Z,82.44
2023-03-26T12:49:12.709Z,82.45
2023-03-26T12:49:43.513Z,82.12
2023-03-26T12:50:50.044Z,82.28
2023-03-26T12:51:36.958Z,82.41
2023-03-26T12:52:37.748Z,82.63
2023-03-26T12:53:37.198Z,82.51